createdAt,value
2023-05-08T00:00:29.797Z,16.90
2023-05-08T00:02:56.589Z,16.90
2023-05-08T00:05:23.420Z,16.90
2023-05-08T00:07:52.142Z,16.80
2023-05-08T00:10:18.961Z,16.80
2023-05-08T00:12:45.708Z,16.70
2023-05-08T00:15:12.554Z,16.70
2023-05-08T00:17:39.306Z,16.70
2023-05-08T00:20:08.749Z,16.60
2023-05-08T00:22:35.708Z,16.70
2023-05-08T00:25:03.200Z,16.70
2023-05-08T00:27:29.890Z,16.70
2023-05-08T00:29:56.619Z,16.70
2023-05-08T00:32:23.570Z,16.70
2023-05-08T00:34:50.741Z,16.70
2023-05-08T00:37:17.706Z,16.60
2023-05-08T00:39:44.345Z,16.60
2023-05-08T00:42:11.108Z,16.60
2023-05-08T00:44:40.089Z,16.60
2023-05-08T00:47:08.576Z,16.60
2023-05-08T00:49:36.028Z,16.60
2023-05-08T00:52:04.728Z,16.60
2023-05-08T00:54:31.616Z,16.60
2023-05-08T00:56:59.662Z,16.60
2023-05-08T00:59:26.849Z,16.50
2023-05-08T01:01:54.019Z,16.50
2023-05-08T01:04:24.604Z,16.50
2023-05-08T01:06:51.378Z,16.40
2023-05-08T01:09:18.153Z,16.40
2023-05-08T01:11:52.444Z,16.40
2023-05-08T01:14:32.302Z,16.30
2023-05-08T01:17:05.306Z,16.30
2023-05-08T01:19:31.998Z,16.20
2023-05-08T01:22:21.617Z,16.30
2023-05-08T01:25:22.387Z,16.30
2023-05-08T01:28:13.911Z,16.20
2023-05-08T01:30:58.569Z,16.20
2023-05-08T01:33:33.572Z,16.20
2023-05-08T01:36:14.328Z,16.20
2023-05-08T01:39:06.024Z,16.20
2023-05-08T01:41:37.007Z,16.10
2023-05-08T01:44:15.578Z,16.10
2023-05-08T01:46:45.706Z,16.10
2023-05-08T01:49:46.153Z,16.10
2023-05-08T01:52:31.811Z,16.10
2023-05-08T01:55:04.634Z,16.10
2023-05-08T01:57:34.580Z,16.00
2023-05-08T02:00:03.817Z,16.00
2023-05-08T02:02:33.244Z,16.00
2023-05-08T02:05:05.117Z,16.00
2023-05-08T02:07:35.191Z,15.90
2023-05-08T02:10:04.263Z,15.90
2023-05-08T02:12:32.591Z,15.90
2023-05-08T02:15:01.349Z,15.90
2023-05-08T02:17:30.264Z,15.90
2023-05-08T02:19:59.371Z,15.90
2023-05-08T02:22:27.304Z,15.90
2023-05-08T02:24:55.649Z,15.80
2023-05-08T02:27:24.434Z,15.90
2023-05-08T02:29:52.968Z,15.90
2023-05-08T02:32:21.142Z,15.90
2023-05-08T02:35:01.815Z,15.90
2023-05-08T02:37:31.125Z,15.90
2023-05-08T02:39:58.938Z,15.90
2023-05-08T02:42:25.766Z,15.90
2023-05-08T02:44:52.513Z,15.90
2023-05-08T02:47:23.855Z,15.90
2023-05-08T02:50:00.246Z,15.90
2023-05-08T02:52:40.013Z,15.80
2023-05-08T02:55:41.698Z,15.80
2023-05-08T02:58:30.793Z,15.80
2023-05-08T03:01:06.763Z,15.80
2023-05-08T03:03:40.020Z,15.80
2023-05-08T03:06:17.095Z,15.80
2023-05-08T03:08:47.556Z,15.80
2023-05-08T03:11:18.112Z,15.80
2023-05-08T03:13:47.052Z,15.80
2023-05-08T03:16:21.760Z,15.80
2023-05-08T03:18:59.623Z,15.80
2023-05-08T03:21:30.447Z,15.80
2023-05-08T03:24:00.593Z,15.70
2023-05-08T03:26:27.868Z,15.70
2023-05-08T03:28:56.300Z,15.70
2023-05-08T03:31:24.316Z,15.70
2023-05-08T03:33:53.934Z,15.60
2023-05-08T03:36:22.477Z,15.60
2023-05-08T03:38:49.451Z,15.60
2023-05-08T03:41:16.432Z,15.60
2023-05-08T03:43:43.929Z,15.70
2023-05-08T03:46:11.186Z,15.70
2023-05-08T03:48:39.849Z,15.70
2023-05-08T03:51:06.559Z,15.60
2023-05-08T03:53:33.700Z,15.60
2023-05-08T03:56:01.174Z,15.60
2023-05-08T03:58:49.118Z,15.60
2023-05-08T04:01:34.487Z,15.50
2023-05-08T04:04:24.282Z,15.50
2023-05-08T04:07:03.753Z,15.50
2023-05-08T04:09:39.255Z,15.40
2023-05-08T04:12:14.551Z,15.40
2023-05-08T04:14:47.884Z,15.40
2023-05-08T04:17:17.706Z,15.40
2023-05-08T04:19:49.542Z,15.40
2023-05-08T04:22:20.339Z,15.40
2023-05-08T04:24:49.450Z,15.40
2023-05-08T04:27:16.679Z,15.50
2023-05-08T04:29:43.780Z,15.50
2023-05-08T04:32:10.968Z,15.40
2023-05-08T04:34:38.047Z,15.40
2023-05-08T04:37:07.886Z,15.40
2023-05-08T04:39:34.662Z,15.50
2023-05-08T04:42:03.937Z,15.40
2023-05-08T04:44:30.731Z,15.40
2023-05-08T04:46:57.504Z,15.40
2023-05-08T04:49:24.211Z,15.40
2023-05-08T04:51:50.992Z,15.40
2023-05-08T04:54:17.698Z,15.40
2023-05-08T04:56:44.464Z,15.40
2023-05-08T04:59:12.223Z,15.40
2023-05-08T05:01:39.521Z,15.50
2023-05-08T05:04:06.517Z,15.50
2023-05-08T05:06:33.770Z,15.50
2023-05-08T05:09:00.641Z,15.50
2023-05-08T05:11:27.471Z,15.40
2023-05-08T05:13:54.172Z,15.40
2023-05-08T05:16:20.876Z,15.40
2023-05-08T05:18:47.568Z,15.40
2023-05-08T05:21:14.632Z,15.40
2023-05-08T05:23:41.448Z,15.30
2023-05-08T05:26:08.411Z,15.30
2023-05-08T05:28:35.099Z,15.40
2023-05-08T05:31:02.098Z,15.40
2023-05-08T05:33:28.865Z,15.40
2023-05-08T05:35:55.709Z,15.40
2023-05-08T05:38:22.515Z,15.40
2023-05-08T05:40:49.554Z,15.50
2023-05-08T05:43:16.270Z,15.50
2023-05-08T05:45:43.064Z,15.60
2023-05-08T05:48:09.961Z,15.60
2023-05-08T05:50:37.958Z,15.60
2023-05-08T05:53:04.713Z,15.60
2023-05-08T05:55:31.804Z,15.60
2023-05-08T05:57:58.673Z,15.50
2023-05-08T06:00:25.561Z,15.50
2023-05-08T06:02:52.456Z,15.50
2023-05-08T06:05:19.691Z,15.50
2023-05-08T06:07:46.474Z,15.60
2023-05-08T06:10:13.466Z,15.70
2023-05-08T06:12:40.626Z,15.70
2023-05-08T06:15:07.991Z,15.80
2023-05-08T06:17:34.724Z,15.80
2023-05-08T06:20:01.436Z,15.90
2023-05-08T06:22:29.299Z,15.90
2023-05-08T06:24:57.289Z,15.90
2023-05-08T06:27:24.146Z,16.00
2023-05-08T06:29:53.182Z,16.00
2023-05-08T06:32:21.046Z,16.10
2023-05-08T06:34:48.570Z,16.10
2023-05-08T06:37:15.497Z,16.10
2023-05-08T06:39:42.200Z,16.10
2023-05-08T06:42:09.180Z,16.10
2023-05-08T06:44:36.091Z,16.20
2023-05-08T06:47:03.111Z,16.20
2023-05-08T06:49:29.974Z,16.40
2023-05-08T06:51:57.944Z,16.20
2023-05-08T06:54:25.003Z,16.10
2023-05-08T06:56:53.677Z,16.00
2023-05-08T06:59:21.395Z,16.00
2023-05-08T07:01:48.225Z,16.00
2023-05-08T07:04:15.225Z,16.10
2023-05-08T07:06:42.121Z,16.10
2023-05-08T07:09:09.797Z,16.10
2023-05-08T07:11:36.516Z,16.10
2023-05-08T07:14:03.410Z,16.10
2023-05-08T07:16:30.263Z,16.10
2023-05-08T07:18:57.551Z,16.10
2023-05-08T07:21:26.177Z,16.10
2023-05-08T07:23:53.800Z,16.10
2023-05-08T07:26:21.544Z,16.10
2023-05-08T07:28:48.710Z,16.10
2023-05-08T07:31:15.643Z,16.10
2023-05-08T07:33:42.610Z,16.20
2023-05-08T07:36:09.396Z,16.30
2023-05-08T07:38:36.697Z,16.40
2023-05-08T07:41:05.356Z,16.40
2023-05-08T07:43:32.370Z,16.50
2023-05-08T07:45:59.120Z,16.60
2023-05-08T07:48:25.960Z,16.70
2023-05-08T07:50:52.652Z,16.80
2023-05-08T07:53:19.444Z,17.00
2023-05-08T07:55:46.117Z,17.10
2023-05-08T07:58:12.829Z,17.20
2023-05-08T08:00:40.750Z,17.40
2023-05-08T08:03:07.728Z,17.60
2023-05-08T08:05:34.523Z,17.70
2023-05-08T08:08:01.475Z,17.90
2023-05-08T08:10:28.377Z,18.00
2023-05-08T08:12:55.133Z,17.90
2023-05-08T08:15:21.993Z,17.90
2023-05-08T08:17:49.025Z,18.00
2023-05-08T08:20:15.917Z,18.20
2023-05-08T08:22:42.684Z,18.30
2023-05-08T08:25:09.599Z,18.30
2023-05-08T08:27:36.344Z,18.30
2023-05-08T08:30:15.590Z,18.20
2023-05-08T08:32:44.248Z,18.20
2023-05-08T08:35:12.635Z,18.30
2023-05-08T08:37:40.921Z,18.40
2023-05-08T08:40:08.251Z,18.40
2023-05-08T08:42:35.007Z,18.50
2023-05-08T08:45:03.225Z,18.50
2023-05-08T08:47:41.204Z,18.50
2023-05-08T08:50:11.286Z,18.50
2023-05-08T08:52:46.763Z,18.50
2023-05-08T08:55:17.009Z,18.50
2023-05-08T08:58:26.702Z,18.50
2023-05-08T09:00:56.089Z,18.60
2023-05-08T09:03:23.176Z,18.70
2023-05-08T09:05:50.063Z,18.70
2023-05-08T09:08:18.744Z,18.70
2023-05-08T09:10:46.617Z,18.60
2023-05-08T09:13:13.379Z,18.80
2023-05-08T09:15:40.861Z,18.80
2023-05-08T09:18:07.687Z,18.60
2023-05-08T09:20:35.163Z,18.60
2023-05-08T09:23:04.695Z,18.60
2023-05-08T09:25:53.816Z,18.60
2023-05-08T09:28:23.136Z,18.60
2023-05-08T09:30:51.699Z,18.70
2023-05-08T09:33:19.320Z,18.80
2023-05-08T09:35:48.419Z,18.70
2023-05-08T09:38:36.449Z,18.60
2023-05-08T09:41:11.269Z,18.80
2023-05-08T09:43:38.787Z,18.70
2023-05-08T09:46:23.524Z,18.60
2023-05-08T09:48:51.827Z,18.60
2023-05-08T09:51:18.976Z,18.50
2023-05-08T09:53:45.879Z,18.50
2023-05-08T09:56:12.749Z,18.50
2023-05-08T09:58:44.385Z,18.50
2023-05-08T10:01:30.254Z,18.50
2023-05-08T10:03:57.819Z,18.40
2023-05-08T10:06:25.224Z,18.40
2023-05-08T10:09:12.083Z,18.30
2023-05-08T10:11:40.679Z,18.30
2023-05-08T10:14:07.876Z,18.30
2023-05-08T10:16:53.907Z,18.30
2023-05-08T10:19:23.518Z,18.30
2023-05-08T10:21:54.673Z,18.20
2023-05-08T10:24:28.469Z,18.20
2023-05-08T10:27:06.316Z,18.10
2023-05-08T10:29:52.479Z,18.10
2023-05-08T10:32:23.702Z,18.10
2023-05-08T10:34:53.671Z,18.10
2023-05-08T10:37:20.754Z,18.10
2023-05-08T10:39:49.122Z,18.20
2023-05-08T10:42:16.217Z,18.20
2023-05-08T10:44:43.311Z,18.20
2023-05-08T10:47:22.522Z,18.20
2023-05-08T10:49:52.092Z,18.20
2023-05-08T10:52:34.176Z,18.20
2023-05-08T10:55:17.064Z,18.20
2023-05-08T10:58:03.228Z,18.20
2023-05-08T11:00:53.360Z,18.30
2023-05-08T11:03:31.421Z,18.40
2023-05-08T11:06:00.903Z,18.30
2023-05-08T11:08:29.015Z,18.40
2023-05-08T11:10:59.377Z,18.50
2023-05-08T11:13:41.341Z,18.40
2023-05-08T11:16:10.941Z,18.30
2023-05-08T11:18:49.182Z,18.20
2023-05-08T11:21:23.812Z,18.20
2023-05-08T11:23:58.012Z,18.20
2023-05-08T11:26:40.423Z,18.30
2023-05-08T11:29:16.902Z,18.30
2023-05-08T11:31:51.012Z,18.20
2023-05-08T11:34:42.683Z,18.00
2023-05-08T11:37:19.749Z,18.10
2023-05-08T11:39:47.426Z,18.30
2023-05-08T11:42:26.980Z,18.40
2023-05-08T11:45:08.297Z,18.50
2023-05-08T11:47:39.206Z,18.70
2023-05-08T11:50:07.948Z,18.80
2023-05-08T11:52:39.300Z,18.80
2023-05-08T11:55:08.717Z,19.10
2023-05-08T11:57:35.612Z,19.20
2023-05-08T12:00:06.375Z,19.40
2023-05-08T12:02:40.860Z,19.60
2023-05-08T12:05:09.194Z,19.70
2023-05-08T12:07:46.747Z,19.80
2023-05-08T12:10:17.521Z,19.90
2023-05-08T12:12:45.379Z,19.90
2023-05-08T12:15:14.081Z,19.90
2023-05-08T12:17:41.825Z,20.00
2023-05-08T12:20:16.634Z,20.10
2023-05-08T12:22:51.723Z,20.00
2023-05-08T12:25:18.937Z,19.80
2023-05-08T12:27:45.978Z,19.70
2023-05-08T12:30:14.623Z,19.80
2023-05-08T12:32:42.665Z,19.60
2023-05-08T12:35:14.077Z,19.30
2023-05-08T12:37:41.052Z,19.10
2023-05-08T12:40:22.040Z,19.10
2023-05-08T12:42:50.873Z,19.10
2023-05-08T12:45:24.697Z,19.00
2023-05-08T12:47:53.375Z,18.90
2023-05-08T12:50:21.970Z,18.80
2023-05-08T12:52:51.650Z,18.80
2023-05-08T12:55:29.751Z,18.80
2023-05-08T12:58:03.958Z,18.70
2023-05-08T13:00:40.351Z,18.70
2023-05-08T13:03:12.548Z,18.60
2023-05-08T13:05:45.728Z,18.60
2023-05-08T13:08:12.706Z,18.60
2023-05-08T13:10:53.875Z,18.60
2023-05-08T13:13:26.192Z,18.60
2023-05-08T13:15:54.724Z,18.60
2023-05-08T13:18:24.218Z,18.60
2023-05-08T13:20:50.990Z,18.50
2023-05-08T13:23:17.757Z,18.50
2023-05-08T13:25:44.519Z,18.50
2023-05-08T13:28:11.531Z,18.40
2023-05-08T13:30:38.785Z,18.30
2023-05-08T13:33:06.202Z,18.30
2023-05-08T13:35:33.737Z,18.10
2023-05-08T13:38:01.190Z,18.00
2023-05-08T13:40:28.323Z,18.10
2023-05-08T13:42:55.137Z,18.20
2023-05-08T13:45:22.065Z,18.10
2023-05-08T13:47:50.164Z,18.20
2023-05-08T13:50:19.883Z,18.20
2023-05-08T13:52:46.569Z,18.20
2023-05-08T13:55:14.092Z,18.30
2023-05-08T13:57:41.597Z,18.30
2023-05-08T14:00:09.579Z,18.40
2023-05-08T14:02:37.651Z,18.40
2023-05-08T14:05:07.978Z,18.50
2023-05-08T14:07:35.452Z,18.50
2023-05-08T14:10:02.388Z,18.60
2023-05-08T14:12:29.178Z,18.70
2023-05-08T14:14:55.986Z,18.80
2023-05-08T14:17:22.734Z,18.90
2023-05-08T14:19:49.453Z,19.10
2023-05-08T14:22:16.190Z,19.30
2023-05-08T14:24:42.996Z,19.50
2023-05-08T14:27:09.960Z,19.80
2023-05-08T14:29:36.682Z,20.10
2023-05-08T14:32:03.709Z,20.50
2023-05-08T14:34:30.577Z,20.80
2023-05-08T14:36:57.249Z,20.90
2023-05-08T14:39:24.088Z,21.10
2023-05-08T14:42:14.333Z,21.20
2023-05-08T14:44:37.749Z,21.00
2023-05-08T14:47:04.629Z,20.80
2023-05-08T14:49:37.938Z,20.80
2023-05-08T14:52:06.601Z,20.80
2023-05-08T14:54:33.715Z,21.00
2023-05-08T14:57:00.633Z,21.10
2023-05-08T14:59:27.306Z,21.20
2023-05-08T15:01:54.110Z,21.20
2023-05-08T15:04:20.998Z,21.30
2023-05-08T15:06:47.899Z,21.40
2023-05-08T15:09:16.486Z,21.50
2023-05-08T15:11:43.514Z,21.60
2023-05-08T15:14:10.212Z,21.50
2023-05-08T15:16:37.052Z,21.50
2023-05-08T15:19:03.802Z,21.50
2023-05-08T15:21:31.074Z,21.50
2023-05-08T15:23:57.840Z,21.50
2023-05-08T15:26:24.546Z,21.40
2023-05-08T15:28:51.267Z,21.30
2023-05-08T15:31:18.508Z,21.30
2023-05-08T15:33:45.634Z,21.40
2023-05-08T15:36:15.669Z,21.40
2023-05-08T15:38:43.839Z,21.40
2023-05-08T15:41:14.618Z,21.50
2023-05-08T15:43:42.349Z,21.40
2023-05-08T15:46:09.369Z,21.50
2023-05-08T15:48:36.279Z,21.60
2023-05-08T15:51:03.109Z,21.60
2023-05-08T15:53:29.905Z,21.40
2023-05-08T15:55:57.271Z,21.20
2023-05-08T15:58:24.729Z,21.30
2023-05-08T16:00:51.763Z,21.30
2023-05-08T16:03:19.073Z,21.20
2023-05-08T16:05:46.016Z,21.30
2023-05-08T16:08:13.706Z,21.20
2023-05-08T16:10:41.502Z,21.30
2023-05-08T16:13:08.806Z,21.20
2023-05-08T16:15:35.612Z,21.20
2023-05-08T16:18:03.416Z,21.30
2023-05-08T16:20:30.586Z,21.20
2023-05-08T16:22:58.759Z,21.20
2023-05-08T16:25:26.092Z,21.30
2023-05-08T16:27:52.814Z,21.30
2023-05-08T16:30:19.637Z,21.30
2023-05-08T16:32:46.585Z,21.30
2023-05-08T16:35:14.514Z,21.20
2023-05-08T16:37:41.628Z,21.30
2023-05-08T16:40:09.385Z,21.40
2023-05-08T16:42:36.950Z,21.40
2023-05-08T16:45:05.014Z,21.40
2023-05-08T16:47:32.103Z,21.40
2023-05-08T16:49:58.984Z,21.30
2023-05-08T16:52:26.222Z,21.20
2023-05-08T16:54:53.329Z,21.20
2023-05-08T16:57:20.165Z,21.20
2023-05-08T16:59:46.969Z,21.30
2023-05-08T17:02:18.559Z,21.20
2023-05-08T17:04:49.408Z,21.20
2023-05-08T17:07:16.749Z,21.20
2023-05-08T17:09:43.767Z,21.10
2023-05-08T17:12:10.615Z,21.00
2023-05-08T17:14:39.422Z,21.00
2023-05-08T17:17:07.030Z,21.00
2023-05-08T17:19:34.080Z,20.90
2023-05-08T17:22:01.132Z,20.80
2023-05-08T17:24:29.747Z,20.80
2023-05-08T17:26:56.436Z,20.60
2023-05-08T17:29:23.476Z,20.60
2023-05-08T17:31:50.489Z,20.50
2023-05-08T17:34:17.393Z,20.50
2023-05-08T17:36:44.279Z,20.50
2023-05-08T17:39:11.707Z,20.40
2023-05-08T17:41:38.386Z,20.40
2023-05-08T17:44:05.117Z,20.30
2023-05-08T17:46:31.891Z,20.30
2023-05-08T17:48:58.617Z,20.20
2023-05-08T17:51:25.365Z,20.20
2023-05-08T17:53:53.089Z,20.20
2023-05-08T17:56:23.209Z,20.10
2023-05-08T17:58:51.911Z,20.10
2023-05-08T18:01:19.931Z,20.10
2023-05-08T18:03:48.375Z,20.00
2023-05-08T18:06:16.965Z,20.00
2023-05-08T18:08:44.435Z,20.00
2023-05-08T18:11:24.822Z,20.00
2023-05-08T18:13:53.224Z,19.90
2023-05-08T18:16:24.009Z,19.90
2023-05-08T18:18:51.859Z,19.80
2023-05-08T18:21:18.776Z,19.80
2023-05-08T18:23:45.566Z,19.70
2023-05-08T18:26:16.155Z,19.70
2023-05-08T18:28:43.877Z,19.60
2023-05-08T18:31:11.801Z,19.60
2023-05-08T18:33:38.760Z,19.60
2023-05-08T18:36:07.001Z,19.50
2023-05-08T18:38:34.466Z,19.50
2023-05-08T18:41:06.162Z,19.40
2023-05-08T18:43:33.301Z,19.30
2023-05-08T18:46:00.718Z,19.30
2023-05-08T18:48:27.674Z,19.30
2023-05-08T18:50:58.547Z,19.20
2023-05-08T18:53:25.702Z,19.30
2023-05-08T18:55:52.908Z,19.20
2023-05-08T18:58:19.750Z,19.20
2023-05-08T19:00:46.552Z,19.10
2023-05-08T19:03:13.607Z,19.10
2023-05-08T19:05:43.860Z,19.00
2023-05-08T19:08:10.754Z,19.00
2023-05-08T19:10:37.517Z,18.90
2023-05-08T19:13:04.547Z,18.90
2023-05-08T19:15:31.350Z,18.90
2023-05-08T19:17:58.160Z,18.80
2023-05-08T19:20:25.109Z,18.80
2023-05-08T19:22:51.984Z,18.80
2023-05-08T19:25:18.716Z,18.80
2023-05-08T19:27:46.500Z,18.70
2023-05-08T19:30:13.559Z,18.70
2023-05-08T19:32:40.683Z,18.60
2023-05-08T19:35:08.395Z,18.60
2023-05-08T19:37:35.662Z,18.60
2023-05-08T19:40:02.518Z,18.60
2023-05-08T19:42:29.309Z,18.50
2023-05-08T19:44:55.984Z,18.50
2023-05-08T19:47:22.801Z,18.50
2023-05-08T19:49:50.647Z,18.50
2023-05-08T19:52:17.498Z,18.40
2023-05-08T19:54:45.684Z,18.30
2023-05-08T19:57:13.046Z,18.30
2023-05-08T19:59:39.843Z,18.30
2023-05-08T20:02:07.169Z,18.30
2023-05-08T20:04:40.037Z,18.20
2023-05-08T20:07:18.927Z,18.20
2023-05-08T20:09:45.708Z,18.20
2023-05-08T20:12:12.526Z,18.20
2023-05-08T20:14:39.460Z,18.10
2023-05-08T20:17:06.171Z,18.10
2023-05-08T20:19:32.975Z,18.10
2023-05-08T20:21:59.736Z,18.00
2023-05-08T20:24:26.473Z,18.00
2023-05-08T20:26:56.128Z,18.00
2023-05-08T20:29:24.251Z,18.00
2023-05-08T20:31:51.993Z,17.90
2023-05-08T20:34:21.757Z,17.90
2023-05-08T20:36:48.912Z,17.80
2023-05-08T20:39:15.854Z,17.80
2023-05-08T20:41:42.544Z,17.80
2023-05-08T20:44:09.315Z,17.80
2023-05-08T20:46:36.122Z,17.80
2023-05-08T20:49:03.979Z,17.70
2023-05-08T20:51:31.919Z,17.70
2023-05-08T20:53:58.825Z,17.70
2023-05-08T20:56:25.711Z,17.70
2023-05-08T20:58:52.432Z,17.60
2023-05-08T21:01:20.962Z,17.60
2023-05-08T21:03:48.127Z,17.60
2023-05-08T21:06:14.930Z,17.60
2023-05-08T21:08:41.725Z,17.60
2023-05-08T21:11:08.531Z,17.60
2023-05-08T21:13:35.251Z,17.60
2023-05-08T21:16:02.049Z,17.50
2023-05-08T21:18:28.877Z,17.50
2023-05-08T21:20:55.589Z,17.50
2023-05-08T21:23:22.541Z,17.50
2023-05-08T21:25:49.921Z,17.40
2023-05-08T21:28:17.264Z,17.40
2023-05-08T21:30:45.351Z,17.30
2023-05-08T21:33:13.909Z,17.20
2023-05-08T21:35:41.686Z,17.20
2023-05-08T21:38:09.489Z,17.20
2023-05-08T21:40:36.271Z,17.20
2023-05-08T21:43:03.057Z,17.10
2023-05-08T21:45:31.311Z,17.10
2023-05-08T21:47:58.705Z,17.10
2023-05-08T21:50:26.051Z,17.10
2023-05-08T21:52:53.252Z,17.10
2023-05-08T21:55:20.972Z,17.10
2023-05-08T21:57:48.175Z,17.00
2023-05-08T22:00:16.507Z,17.00
2023-05-08T22:02:43.247Z,17.00
2023-05-08T22:05:10.533Z,17.00
2023-05-08T22:07:37.316Z,16.90
2023-05-08T22:10:04.486Z,16.90
2023-05-08T22:12:31.206Z,16.90
2023-05-08T22:14:57.901Z,16.90
2023-05-08T22:17:24.712Z,16.80
2023-05-08T22:19:51.596Z,16.80
2023-05-08T22:22:18.340Z,16.80
2023-05-08T22:24:45.013Z,16.80
2023-05-08T22:27:11.662Z,16.80
2023-05-08T22:29:38.572Z,16.80
2023-05-08T22:32:05.476Z,16.70
2023-05-08T22:34:32.132Z,16.70
2023-05-08T22:36:58.993Z,16.70
2023-05-08T22:39:26.205Z,16.60
2023-05-08T22:41:53.610Z,16.60
2023-05-08T22:44:20.470Z,16.60
2023-05-08T22:46:47.479Z,16.60
2023-05-08T22:49:14.227Z,16.60
2023-05-08T22:51:41.103Z,16.60
2023-05-08T22:54:08.056Z,16.60
2023-05-08T22:56:35.685Z,16.60
2023-05-08T22:59:02.422Z,16.60
2023-05-08T23:01:29.132Z,16.60
2023-05-08T23:03:56.505Z,16.60
2023-05-08T23:06:23.440Z,16.60
2023-05-08T23:08:50.270Z,16.60
2023-05-08T23:11:16.997Z,16.60
2023-05-08T23:13:43.638Z,16.60
2023-05-08T23:16:10.449Z,16.50
2023-05-08T23:18:37.234Z,16.50
2023-05-08T23:21:07.783Z,16.50
2023-05-08T23:23:35.346Z,16.50
2023-05-08T23:26:04.985Z,16.40
2023-05-08T23:28:36.729Z,16.50
2023-05-08T23:31:03.901Z,16.50
2023-05-08T23:33:30.928Z,16.50
2023-05-08T23:35:59.179Z,16.40
2023-05-08T23:38:25.995Z,16.40
2023-05-08T23:40:52.755Z,16.40
2023-05-08T23:43:19.500Z,16.40
2023-05-08T23:45:46.271Z,16.30
2023-05-08T23:48:12.924Z,16.30
2023-05-08T23:50:40.818Z,16.30
2023-05-08T23:53:07.715Z,16.20
2023-05-08T23:55:37.865Z,16.20
2023-05-08T23:58:04.938Z,16.10
